Terminal Aerodrome Forecast
Issued by NWS

Current Version | Previous Version | Text Only | Print | Product List | Glossary Off
Versions: 1 2 3 4 5 6 7 8 9 10 11 12 13 14 15

067
FTUS41 KILN 071122
TAFLCK
TAF
KLCK 071122Z 0712/0812 21006KT P6SM SCT250
     FM071600 21012KT P6SM BKN150
     FM072300 21008KT P6SM SCT050 OVC120
     FM080500 20010KT P6SM -RA SCT025 OVC035=

USA.gov is the U.S. government's official web portal to all federal, state and local government web resources and services.